Time;durP1;ratioP1;P1;durP2;ratioP2;P2;SDS_P1;SDS_P2;PMS_P1;PMS_P2;Temp;Humidity;BMP_temperature;BMP_pressure;BME280_temperature;BME280_humidity;BME280_pressure;Samples;Min_cycle;Max_cycle;Signal;HPM_P1;HPM_P2
2022/07/19 00:00:46;;;;;;;6.32;3.25;;;20.00;99.90;;;;;;5106725;28;20404;-68
2022/07/19 00:03:13;;;;;;;5.90;3.17;;;20.00;99.90;;;;;;5098861;28;20119;-67
2022/07/19 00:05:39;;;;;;;5.43;3.42;;;19.90;99.90;;;;;;5092572;28;20431;-67
2022/07/19 00:08:05;;;;;;;4.97;3.65;;;19.90;99.90;;;;;;5092432;28;20032;-67
2022/07/19 00:10:30;;;;;;;8.23;3.20;;;19.90;99.90;;;;;;5092628;28;20063;-67
2022/07/19 00:12:56;;;;;;;7.57;3.20;;;19.90;99.90;;;;;;5092481;28;20044;-68
2022/07/19 00:15:22;;;;;;;6.82;3.45;;;19.90;99.90;;;;;;5092427;28;20040;-67
2022/07/19 00:17:49;;;;;;;6.25;3.30;;;19.90;99.90;;;;;;5090796;28;20045;-67
2022/07/19 00:20:18;;;;;;;6.05;3.40;;;19.80;99.90;;;;;;5090746;28;20071;-67
2022/07/19 00:22:44;;;;;;;8.82;3.53;;;19.80;99.90;;;;;;5090434;28;20396;-68
2022/07/19 00:25:10;;;;;;;7.00;3.90;;;19.80;99.90;;;;;;5092337;28;20028;-68
2022/07/19 00:27:36;;;;;;;8.68;3.40;;;19.80;99.90;;;;;;5092222;28;20067;-68
2022/07/19 00:30:05;;;;;;;5.32;3.58;;;19.80;99.90;;;;;;5092234;28;20082;-68
2022/07/19 00:32:30;;;;;;;7.90;3.25;;;19.80;99.90;;;;;;5091580;28;20043;-68
2022/07/19 00:34:56;;;;;;;8.32;4.13;;;19.70;99.90;;;;;;5091859;28;20119;-68
2022/07/19 00:37:21;;;;;;;7.85;3.60;;;19.70;99.90;;;;;;5090317;28;20105;-68
2022/07/19 00:39:47;;;;;;;5.68;3.83;;;19.70;99.90;;;;;;5091337;28;20040;-68
2022/07/19 00:42:14;;;;;;;7.00;3.67;;;19.70;99.90;;;;;;5090345;28;20044;-68
2022/07/19 00:44:40;;;;;;;8.18;4.03;;;19.70;99.90;;;;;;5091729;28;20067;-68
2022/07/19 00:47:06;;;;;;;6.88;3.85;;;19.60;99.90;;;;;;5091820;28;20122;-68
2022/07/19 00:49:32;;;;;;;8.88;3.70;;;19.70;99.90;;;;;;5091443;28;20027;-68
2022/07/19 00:51:59;;;;;;;7.05;3.88;;;19.70;99.90;;;;;;5091717;28;20453;-68
2022/07/19 00:54:25;;;;;;;5.05;3.67;;;19.70;99.90;;;;;;5091444;28;20036;-68
2022/07/19 00:56:51;;;;;;;6.93;3.90;;;19.60;99.90;;;;;;5091674;28;20048;-68
2022/07/19 00:59:18;;;;;;;6.40;3.70;;;19.60;99.90;;;;;;5091528;28;20457;-68
2022/07/19 01:01:44;;;;;;;5.57;3.78;;;19.60;99.90;;;;;;5091367;28;20054;-68
2022/07/19 01:04:11;;;;;;;5.63;3.47;;;19.50;99.90;;;;;;5091027;28;20043;-68
2022/07/19 01:06:37;;;;;;;8.07;4.05;;;19.50;99.90;;;;;;5091520;28;20154;-68
2022/07/19 01:09:04;;;;;;;5.38;3.75;;;19.50;99.90;;;;;;5093039;28;20400;-68
2022/07/19 01:11:30;;;;;;;6.78;4.07;;;19.40;99.90;;;;;;5095193;28;20040;-68
2022/07/19 01:13:56;;;;;;;12.07;3.67;;;19.40;99.90;;;;;;5098846;28;20051;-68
2022/07/19 01:16:22;;;;;;;7.20;3.78;;;19.40;99.90;;;;;;5093616;28;20039;-68
2022/07/19 01:18:49;;;;;;;7.05;4.15;;;19.30;99.90;;;;;;5091533;28;20044;-68
2022/07/19 01:21:23;;;;;;;5.75;3.50;;;19.30;99.90;;;;;;5089855;28;20032;-68
2022/07/19 01:23:50;;;;;;;4.63;3.40;;;19.30;99.90;;;;;;5090879;28;20400;-68
2022/07/19 01:26:16;;;;;;;9.07;4.55;;;19.30;99.90;;;;;;5089912;28;20043;-68
2022/07/19 01:28:43;;;;;;;7.50;4.00;;;19.30;99.90;;;;;;5091247;28;20067;-68
2022/07/19 01:31:08;;;;;;;8.35;4.15;;;19.30;99.90;;;;;;5072920;28;20040;-68
2022/07/19 01:33:45;;;;;;;6.22;3.92;;;19.30;99.90;;;;;;5091018;28;20569;-68
2022/07/19 01:36:11;;;;;;;10.93;3.88;;;19.30;99.90;;;;;;5073174;28;20059;-68
2022/07/19 01:38:38;;;;;;;7.82;3.97;;;19.20;99.90;;;;;;5090970;28;20450;-68
2022/07/19 01:41:05;;;;;;;6.50;3.88;;;19.30;99.90;;;;;;5090584;28;20036;-68
2022/07/19 01:43:30;;;;;;;7.40;4.20;;;19.20;99.90;;;;;;5091012;28;20115;-68
2022/07/19 01:45:56;;;;;;;8.02;4.13;;;19.20;99.90;;;;;;5091362;28;20662;-68
2022/07/19 01:48:22;;;;;;;9.32;4.30;;;19.10;99.90;;;;;;5090564;28;20400;-68
2022/07/19 01:50:47;;;;;;;9.07;3.65;;;19.20;99.90;;;;;;5094997;28;20036;-68
2022/07/19 01:53:13;;;;;;;8.23;4.07;;;19.10;99.90;;;;;;5094515;28;20050;-68
2022/07/19 01:55:38;;;;;;;7.38;4.03;;;19.10;99.90;;;;;;5093689;28;20032;-68
2022/07/19 01:58:05;;;;;;;8.43;4.32;;;19.10;99.90;;;;;;5094868;28;20078;-68
2022/07/19 02:00:32;;;;;;;9.25;4.35;;;19.10;99.90;;;;;;5093729;28;20050;-68
2022/07/19 02:02:57;;;;;;;6.85;4.15;;;19.10;99.90;;;;;;5094543;28;20047;-68
2022/07/19 02:05:23;;;;;;;13.02;4.30;;;19.00;99.90;;;;;;5094754;28;20028;-68
2022/07/19 02:07:48;;;;;;;7.18;4.32;;;19.00;99.90;;;;;;5094664;28;20388;-68
2022/07/19 02:10:14;;;;;;;8.90;4.22;;;18.90;99.90;;;;;;5093466;28;20044;-68
2022/07/19 02:12:40;;;;;;;6.72;4.07;;;19.00;99.90;;;;;;5094570;28;20040;-68
2022/07/19 02:15:07;;;;;;;9.50;4.05;;;18.90;99.90;;;;;;5094730;28;20123;-68
2022/07/19 02:17:32;;;;;;;7.65;4.07;;;18.80;99.90;;;;;;5098105;28;20051;-68
2022/07/19 02:19:58;;;;;;;6.65;4.13;;;18.80;99.90;;;;;;5110818;28;20044;-68
2022/07/19 02:22:23;;;;;;;7.55;3.85;;;18.80;99.90;;;;;;5101454;28;20443;-68
2022/07/19 02:24:49;;;;;;;9.93;4.35;;;18.80;99.90;;;;;;5094437;28;20039;-68
2022/07/19 02:27:14;;;;;;;8.55;4.13;;;18.70;99.90;;;;;;5094923;28;20062;-68
2022/07/19 02:29:40;;;;;;;7.55;3.90;;;18.70;99.90;;;;;;5095394;28;20523;-68
2022/07/19 02:32:06;;;;;;;8.15;4.03;;;18.70;99.90;;;;;;5095474;28;20075;-68
2022/07/19 02:34:33;;;;;;;6.10;3.92;;;18.60;99.90;;;;;;5094502;28;20089;-68
2022/07/19 02:36:58;;;;;;;7.00;4.20;;;18.60;99.90;;;;;;5094164;28;20409;-68
2022/07/19 02:39:24;;;;;;;9.30;4.32;;;18.60;99.90;;;;;;5093479;28;20039;-68
2022/07/19 02:41:50;;;;;;;8.00;4.43;;;18.60;99.90;;;;;;5094230;28;20092;-68
2022/07/19 02:44:15;;;;;;;9.27;4.55;;;18.60;99.90;;;;;;5093757;28;20036;-68
2022/07/19 02:46:41;;;;;;;9.45;4.53;;;18.60;99.90;;;;;;5094044;28;20040;-68
2022/07/19 02:49:06;;;;;;;7.97;4.32;;;18.60;99.90;;;;;;5093743;28;20054;-68
2022/07/19 02:51:32;;;;;;;5.28;3.72;;;18.60;99.90;;;;;;5092332;28;20051;-68
2022/07/19 02:53:57;;;;;;;9.07;4.60;;;18.50;99.90;;;;;;5092331;28;20040;-68
2022/07/19 02:56:23;;;;;;;6.13;4.25;;;18.50;99.90;;;;;;5093857;28;20062;-68
2022/07/19 02:58:48;;;;;;;8.48;4.32;;;18.50;99.90;;;;;;5091990;28;20079;-68
2022/07/19 03:01:14;;;;;;;8.23;4.35;;;18.50;99.90;;;;;;5093363;28;20075;-68
2022/07/19 03:03:50;;;;;;;8.20;4.65;;;18.40;99.90;;;;;;5093383;28;20039;-68
2022/07/19 03:06:17;;;;;;;10.38;5.05;;;18.50;99.90;;;;;;5092176;28;20032;-68
2022/07/19 03:08:44;;;;;;;10.05;4.93;;;18.40;99.90;;;;;;5093535;28;20036;-68
2022/07/19 03:11:10;;;;;;;8.02;4.82;;;18.40;99.90;;;;;;5093289;28;20028;-69
2022/07/19 03:13:35;;;;;;;11.27;4.80;;;18.40;99.90;;;;;;5093093;28;20504;-68
2022/07/19 03:16:01;;;;;;;7.97;5.03;;;18.40;99.90;;;;;;5093461;28;20035;-69
2022/07/19 03:18:27;;;;;;;8.23;4.57;;;18.40;99.90;;;;;;5092236;28;20040;-68
2022/07/19 03:20:54;;;;;;;7.68;4.78;;;18.30;99.90;;;;;;5091733;28;20515;-68
2022/07/19 03:23:20;;;;;;;12.73;5.30;;;18.30;99.90;;;;;;5091543;28;20086;-68
2022/07/19 03:25:45;;;;;;;9.48;5.18;;;18.30;99.90;;;;;;5094649;28;20043;-68
2022/07/19 03:28:11;;;;;;;9.48;5.45;;;18.30;99.90;;;;;;5101719;28;20459;-68
2022/07/19 03:30:36;;;;;;;8.30;4.95;;;18.20;99.90;;;;;;5102032;28;20424;-67
2022/07/19 03:33:02;;;;;;;9.05;5.13;;;18.20;99.90;;;;;;5090678;28;20048;-67
2022/07/19 03:35:28;;;;;;;7.07;4.78;;;18.20;99.90;;;;;;5090081;28;20066;-67
2022/07/19 03:37:53;;;;;;;8.88;5.20;;;18.20;99.90;;;;;;5092059;28;20093;-67
2022/07/19 03:40:19;;;;;;;8.02;5.60;;;18.20;99.90;;;;;;5092313;28;20032;-68
2022/07/19 03:42:44;;;;;;;8.63;5.25;;;18.20;99.90;;;;;;5090671;28;20512;-68
2022/07/19 03:45:10;;;;;;;9.38;5.20;;;18.20;99.90;;;;;;5091720;28;20047;-68
2022/07/19 03:47:36;;;;;;;9.40;5.15;;;18.20;99.90;;;;;;5092211;28;20563;-68
2022/07/19 03:50:02;;;;;;;7.13;4.88;;;18.20;99.90;;;;;;5092782;28;20411;-68
2022/07/19 03:52:27;;;;;;;9.70;4.82;;;18.10;99.90;;;;;;5092975;28;20048;-68
2022/07/19 03:54:53;;;;;;;7.65;4.85;;;18.10;99.90;;;;;;5093084;28;20044;-68
2022/07/19 03:57:18;;;;;;;7.57;4.70;;;18.10;99.90;;;;;;5092716;28;20046;-68
2022/07/19 03:59:44;;;;;;;9.00;4.93;;;18.10;99.90;;;;;;5092493;28;20036;-68
2022/07/19 04:02:10;;;;;;;11.38;5.38;;;18.10;99.90;;;;;;5092328;28;20036;-68
2022/07/19 04:04:35;;;;;;;8.52;4.68;;;18.00;99.90;;;;;;5090936;28;20534;-68
2022/07/19 04:07:01;;;;;;;9.18;5.18;;;18.00;99.90;;;;;;5092494;28;20040;-68
2022/07/19 04:09:27;;;;;;;9.35;5.63;;;18.00;99.90;;;;;;5091226;28;20109;-68
2022/07/19 04:11:53;;;;;;;10.20;5.13;;;18.10;99.90;;;;;;5091415;28;20041;-68
2022/07/19 04:14:18;;;;;;;8.70;5.18;;;18.20;99.90;;;;;;5092246;28;20051;-68
2022/07/19 04:16:44;;;;;;;9.93;5.68;;;18.20;99.90;;;;;;5092139;28;20035;-68
2022/07/19 04:19:10;;;;;;;10.43;5.15;;;18.30;99.90;;;;;;5090647;28;20036;-68
2022/07/19 04:21:35;;;;;;;12.18;5.07;;;18.40;99.90;;;;;;5090626;28;20062;-68
2022/07/19 04:24:01;;;;;;;10.80;6.10;;;18.50;99.90;;;;;;5091842;28;20066;-68
2022/07/19 04:26:26;;;;;;;17.27;6.28;;;18.60;99.90;;;;;;5092210;28;20516;-68
2022/07/19 04:28:52;;;;;;;9.55;5.63;;;18.60;99.90;;;;;;5091989;28;20067;-68
2022/07/19 04:31:17;;;;;;;6.43;4.88;;;18.60;99.90;;;;;;5092217;28;20048;-68
2022/07/19 04:33:43;;;;;;;8.70;5.03;;;18.50;99.90;;;;;;5091438;28;20028;-68
2022/07/19 04:36:08;;;;;;;10.38;5.68;;;18.40;99.90;;;;;;5093808;28;20047;-69
2022/07/19 04:38:34;;;;;;;10.25;5.38;;;18.40;99.90;;;;;;5104876;28;20028;-68
2022/07/19 04:41:00;;;;;;;7.45;4.85;;;18.50;99.90;;;;;;5098093;28;20028;-68
2022/07/19 04:43:26;;;;;;;8.60;5.53;;;18.50;99.90;;;;;;5090526;28;20036;-68
2022/07/19 04:45:52;;;;;;;10.15;5.32;;;18.60;99.90;;;;;;5091712;28;20038;-68
2022/07/19 04:48:17;;;;;;;12.27;5.75;;;18.80;99.90;;;;;;5091464;28;20469;-68
2022/07/19 04:50:43;;;;;;;10.15;6.00;;;18.80;99.90;;;;;;5091720;28;20438;-69
2022/07/19 04:53:08;;;;;;;16.35;6.30;;;18.90;99.90;;;;;;5091240;28;20539;-69
2022/07/19 04:55:36;;;;;;;7.60;5.72;;;19.00;99.90;;;;;;5091545;28;20036;-68
2022/07/19 04:58:02;;;;;;;14.75;7.13;;;19.20;99.90;;;;;;5090259;28;20048;-68
2022/07/19 05:00:28;;;;;;;14.95;6.97;;;19.40;99.90;;;;;;5091207;28;20403;-68
2022/07/19 05:02:54;;;;;;;13.40;6.45;;;19.50;99.90;;;;;;5090804;28;20100;-68
2022/07/19 05:05:20;;;;;;;12.75;6.60;;;19.60;99.90;;;;;;5091463;28;20039;-68
2022/07/19 05:07:46;;;;;;;9.90;6.40;;;19.60;99.90;;;;;;5073127;28;20396;-68
2022/07/19 05:10:12;;;;;;;15.60;6.90;;;19.70;99.90;;;;;;5091035;28;20127;-68
2022/07/19 05:12:39;;;;;;;11.23;6.47;;;19.80;99.90;;;;;;5091037;28;20062;-68
2022/07/19 05:15:06;;;;;;;11.65;6.22;;;20.00;99.90;;;;;;5091400;28;20036;-68
2022/07/19 05:17:32;;;;;;;13.57;7.10;;;20.10;99.90;;;;;;5089882;28;20126;-68
2022/07/19 05:19:57;;;;;;;11.13;6.43;;;20.20;99.90;;;;;;5091265;28;20111;-68
2022/07/19 05:22:24;;;;;;;13.13;6.90;;;20.30;99.90;;;;;;5089255;28;20400;-68
2022/07/19 05:24:51;;;;;;;12.38;5.90;;;20.50;99.90;;;;;;5089836;28;20048;-68
2022/07/19 05:27:16;;;;;;;13.40;6.63;;;20.60;99.90;;;;;;5089723;28;20039;-68
2022/07/19 05:29:42;;;;;;;10.45;6.57;;;20.50;99.90;;;;;;5091020;28;20488;-68
2022/07/19 05:32:07;;;;;;;14.13;6.72;;;20.70;99.90;;;;;;5090900;28;20097;-68
2022/07/19 05:34:33;;;;;;;11.25;6.90;;;20.80;99.90;;;;;;5091010;28;20408;-69
2022/07/19 05:36:58;;;;;;;19.83;6.10;;;20.90;99.90;;;;;;5091129;28;20479;-69
2022/07/19 05:39:24;;;;;;;9.60;6.00;;;21.00;99.90;;;;;;5091149;28;20119;-69
2022/07/19 05:41:49;;;;;;;11.10;6.90;;;21.10;99.90;;;;;;5089641;28;20487;-69
2022/07/19 05:44:15;;;;;;;14.05;7.55;;;21.20;99.90;;;;;;5090813;28;20051;-68
2022/07/19 05:46:41;;;;;;;13.45;7.32;;;21.20;99.90;;;;;;5102298;28;20049;-68
2022/07/19 05:49:14;;;;;;;10.23;7.13;;;21.30;99.90;;;;;;5102530;28;20036;-69
2022/07/19 05:51:40;;;;;;;18.17;7.60;;;21.40;99.90;;;;;;5090225;28;20089;-68
2022/07/19 05:54:06;;;;;;;12.30;7.18;;;21.40;99.90;;;;;;5090907;28;20040;-69
2022/07/19 05:56:32;;;;;;;16.98;8.05;;;21.50;99.90;;;;;;5091275;28;20048;-68
2022/07/19 05:58:58;;;;;;;14.38;6.75;;;21.60;99.90;;;;;;5090821;28;20446;-68
2022/07/19 06:01:24;;;;;;;11.20;6.32;;;21.60;99.90;;;;;;5091126;28;20089;-69
2022/07/19 06:03:54;;;;;;;14.20;6.68;;;21.80;99.90;;;;;;5089507;28;20385;-68
2022/07/19 06:06:20;;;;;;;14.88;7.63;;;21.90;99.90;;;;;;5089677;28;20083;-68
2022/07/19 06:08:46;;;;;;;15.90;7.13;;;21.90;99.90;;;;;;5093169;28;20496;-68
2022/07/19 06:11:13;;;;;;;15.90;6.70;;;22.10;99.90;;;;;;5090831;28;20039;-68
2022/07/19 06:13:39;;;;;;;12.85;6.63;;;22.10;99.90;;;;;;5090513;28;20043;-68
2022/07/19 06:16:06;;;;;;;13.27;7.05;;;22.20;99.90;;;;;;5090895;28;20040;-67
2022/07/19 06:18:34;;;;;;;12.68;6.95;;;22.20;99.90;;;;;;5090860;28;20047;-68
2022/07/19 06:21:13;;;;;;;12.35;6.57;;;22.40;99.90;;;;;;5089019;28;20115;-68
2022/07/19 06:23:39;;;;;;;10.65;6.78;;;22.40;99.90;;;;;;5090528;28;20044;-69
2022/07/19 06:26:06;;;;;;;14.65;6.22;;;22.50;99.90;;;;;;5089520;28;20032;-69
2022/07/19 06:28:32;;;;;;;9.70;6.18;;;22.70;99.90;;;;;;5090389;28;20450;-69
2022/07/19 06:30:58;;;;;;;8.88;6.00;;;22.70;99.90;;;;;;5091382;28;20032;-68
2022/07/19 06:33:24;;;;;;;12.57;6.43;;;22.80;99.90;;;;;;5090470;28;20500;-68
2022/07/19 06:35:50;;;;;;;8.02;5.65;;;22.80;99.90;;;;;;5093743;28;20055;-68
2022/07/19 06:38:15;;;;;;;11.50;6.35;;;23.00;99.90;;;;;;5094063;28;20044;-69
2022/07/19 06:40:41;;;;;;;10.55;6.65;;;23.00;99.90;;;;;;5092554;28;20048;-68
2022/07/19 06:43:07;;;;;;;10.00;6.32;;;23.10;99.90;;;;;;5093646;28;20499;-68
2022/07/19 06:45:33;;;;;;;11.25;6.82;;;23.20;99.90;;;;;;5093728;28;20032;-68
2022/07/19 06:47:58;;;;;;;12.40;6.03;;;23.30;99.90;;;;;;5093771;28;20443;-69
2022/07/19 06:50:24;;;;;;;10.98;6.68;;;23.40;99.90;;;;;;5093477;28;20028;-69
2022/07/19 06:52:50;;;;;;;9.55;6.18;;;23.50;99.90;;;;;;5093157;28;20044;-69
2022/07/19 06:55:16;;;;;;;11.98;6.20;;;23.40;99.90;;;;;;5099829;28;20044;-69
2022/07/19 06:57:42;;;;;;;9.90;5.43;;;23.50;99.90;;;;;;5110003;28;20060;-69
2022/07/19 07:00:09;;;;;;;9.27;6.15;;;23.60;99.90;;;;;;5094978;28;20044;-68
2022/07/19 07:02:38;;;;;;;14.00;6.13;;;23.70;99.90;;;;;;5093160;28;20086;-68
2022/07/19 07:05:09;;;;;;;12.93;5.95;;;23.70;99.90;;;;;;5093348;28;20119;-68
2022/07/19 07:07:35;;;;;;;7.03;5.10;;;23.90;99.90;;;;;;5093203;28;20404;-67
2022/07/19 07:10:01;;;;;;;9.10;6.00;;;24.00;99.90;;;;;;5092965;28;20043;-68
2022/07/19 07:12:30;;;;;;;9.35;5.68;;;24.10;99.90;;;;;;5092831;28;20119;-68
2022/07/19 07:14:56;;;;;;;12.65;4.60;;;24.20;99.90;;;;;;5093017;28;20065;-69
2022/07/19 07:17:22;;;;;;;10.38;5.22;;;24.30;99.90;;;;;;5093193;28;20114;-71
2022/07/19 07:19:47;;;;;;;8.77;4.90;;;24.40;99.90;;;;;;5093083;28;20047;-71
2022/07/19 07:22:13;;;;;;;10.50;4.82;;;24.40;99.90;;;;;;5092389;28;20044;-72
2022/07/19 07:24:38;;;;;;;8.75;4.75;;;24.50;99.90;;;;;;5092863;28;20404;-71
2022/07/19 07:27:04;;;;;;;8.98;5.45;;;24.60;99.90;;;;;;5091897;28;20489;-70
2022/07/19 07:29:30;;;;;;;12.98;5.47;;;24.60;99.90;;;;;;5091457;28;20040;-71
2022/07/19 07:31:56;;;;;;;8.70;4.80;;;24.70;99.90;;;;;;5091885;28;20126;-72
2022/07/19 07:34:22;;;;;;;8.98;5.22;;;24.70;99.90;;;;;;5091373;28;20044;-71
2022/07/19 07:36:48;;;;;;;13.23;5.03;;;24.70;99.90;;;;;;5092591;28;20046;-72
2022/07/19 07:39:14;;;;;;;10.23;4.63;;;24.70;99.90;;;;;;5092483;28;20043;-71
2022/07/19 07:41:39;;;;;;;12.18;5.38;;;24.90;99.90;;;;;;5091030;28;20073;-71
2022/07/19 07:44:05;;;;;;;7.70;4.40;;;25.10;99.90;;;;;;5090782;28;20083;-71
2022/07/19 07:46:31;;;;;;;7.57;4.45;;;25.20;99.90;;;;;;5092641;28;20032;-71
2022/07/19 07:48:57;;;;;;;7.95;4.70;;;25.20;99.90;;;;;;5092040;28;20126;-71
2022/07/19 07:51:22;;;;;;;7.65;4.40;;;25.30;99.90;;;;;;5092575;28;20032;-71
2022/07/19 07:53:48;;;;;;;8.02;4.03;;;25.50;99.90;;;;;;5091193;28;20098;-70
2022/07/19 07:56:14;;;;;;;8.13;4.10;;;25.60;99.90;;;;;;5091263;28;20039;-72
2022/07/19 07:58:39;;;;;;;11.38;3.85;;;25.70;99.90;;;;;;5091356;28;20073;-70
2022/07/19 08:01:05;;;;;;;7.82;4.15;;;25.80;99.90;;;;;;5092197;28;20067;-70
2022/07/19 08:03:31;;;;;;;6.35;3.90;;;25.90;99.90;;;;;;5093752;28;20051;-71
2022/07/19 08:05:57;;;;;;;5.90;3.22;;;25.90;99.90;;;;;;5103361;28;20040;-70
2022/07/19 08:08:26;;;;;;;7.50;3.80;;;26.10;99.90;;;;;;5098250;28;20033;-70
2022/07/19 08:10:56;;;;;;;7.28;3.25;;;26.20;99.90;;;;;;5091614;28;20039;-69
2022/07/19 08:13:22;;;;;;;15.02;3.70;;;26.40;99.90;;;;;;5092030;28;20070;-69
2022/07/19 08:15:47;;;;;;;5.60;3.60;;;26.40;99.90;;;;;;5091103;28;20539;-70
2022/07/19 08:18:13;;;;;;;10.15;3.80;;;26.50;99.90;;;;;;5091901;28;20055;-72
2022/07/19 08:20:39;;;;;;;6.32;3.40;;;26.70;99.90;;;;;;5090448;28;20487;-70
2022/07/19 08:23:04;;;;;;;7.88;2.72;;;26.80;99.90;;;;;;5090030;28;20083;-70
2022/07/19 08:25:32;;;;;;;5.50;2.63;;;26.90;99.90;;;;;;5090470;28;20043;-69
2022/07/19 08:27:58;;;;;;;6.10;2.78;;;27.00;99.90;;;;;;5090217;28;20127;-70
2022/07/19 08:30:23;;;;;;;7.93;3.17;;;27.10;99.90;;;;;;5090383;28;20119;-71
2022/07/19 08:32:49;;;;;;;5.05;3.25;;;27.10;99.90;;;;;;5090189;28;20044;-70
2022/07/19 08:35:14;;;;;;;10.20;3.20;;;27.30;99.90;;;;;;5090505;28;20047;-70
2022/07/19 08:37:40;;;;;;;5.78;2.70;;;27.40;99.90;;;;;;5090519;28;20127;-70
2022/07/19 08:40:06;;;;;;;8.35;3.20;;;27.60;99.90;;;;;;5091454;28;20561;-71
2022/07/19 08:42:33;;;;;;;9.35;2.58;;;27.60;99.90;;;;;;5090006;28;20094;-71
2022/07/19 08:45:03;;;;;;;6.93;3.00;;;27.70;99.90;;;;;;5091510;28;20044;-71
2022/07/19 08:47:31;;;;;;;6.97;2.65;;;27.80;99.90;;;;;;5091314;28;20040;-71
2022/07/19 08:49:58;;;;;;;6.10;2.63;;;27.90;99.90;;;;;;5091169;28;20047;-71
2022/07/19 08:52:24;;;;;;;7.80;2.90;;;28.00;99.90;;;;;;5073095;28;20048;-71
2022/07/19 08:54:50;;;;;;;5.63;2.67;;;28.00;99.90;;;;;;5091330;28;20381;-70
2022/07/19 09:00:00;;;;;;;7.53;3.10;;;28.10;99.70;;;;;;5091059;28;20044;-71
2022/07/19 09:02:25;;;;;;;9.35;3.13;;;28.20;99.80;;;;;;5089322;28;20123;-71
2022/07/19 09:05:08;;;;;;;3.25;2.25;;;28.30;99.60;;;;;;5091163;28;20036;-70
2022/07/19 09:07:35;;;;;;;7.78;2.65;;;28.40;99.20;;;;;;5091530;28;20502;-71
2022/07/19 09:10:35;;;;;;;7.70;2.78;;;28.50;98.70;;;;;;5092920;28;20044;-70
2022/07/19 09:13:14;;;;;;;5.65;2.88;;;28.70;99.00;;;;;;5052985;28;20180;-71
2022/07/19 09:15:49;;;;;;;11.35;2.78;;;28.70;99.10;;;;;;5064864;28;20694;-71
2022/07/19 09:18:25;;;;;;;6.57;2.65;;;28.90;98.70;;;;;;5035892;28;20068;-71
2022/07/19 09:20:55;;;;;;;6.45;2.47;;;28.90;97.70;;;;;;5047892;28;20056;-71
2022/07/19 09:23:21;;;;;;;5.30;2.40;;;29.00;98.40;;;;;;5047431;28;20179;-72
2022/07/19 09:25:54;;;;;;;8.55;2.67;;;29.10;98.50;;;;;;5047902;28;20405;-71
2022/07/19 09:28:21;;;;;;;6.00;2.60;;;29.30;97.60;;;;;;5047911;28;20052;-71
2022/07/19 09:30:52;;;;;;;4.40;2.30;;;29.30;97.40;;;;;;5031542;28;20851;-71
2022/07/19 09:33:23;;;;;;;5.75;2.45;;;29.40;96.30;;;;;;5047900;28;20048;-72
2022/07/19 09:35:51;;;;;;;5.13;2.47;;;29.60;96.20;;;;;;5048229;28;20064;-71
2022/07/19 09:38:22;;;;;;;10.70;2.90;;;29.50;96.20;;;;;;5031319;28;20041;-71
2022/07/19 09:40:49;;;;;;;;;;;29.70;94.80;;;;;;5048518;28;20041;-72
2022/07/19 09:43:16;;;;;;;7.95;2.70;;;29.70;94.80;;;;;;5031008;28;19947;-71
2022/07/19 09:45:42;;;;;;;9.15;2.25;;;29.80;95.00;;;;;;5048003;28;20132;-70
2022/07/19 09:48:08;;;;;;;9.35;2.45;;;29.80;94.90;;;;;;5061297;28;20109;-71
2022/07/19 09:50:33;;;;;;;7.85;2.22;;;30.00;94.70;;;;;;5090341;28;20040;-70
2022/07/19 09:53:05;;;;;;;4.57;2.05;;;30.00;93.10;;;;;;5088681;28;20074;-71
2022/07/19 09:55:31;;;;;;;6.38;2.22;;;30.10;93.10;;;;;;5090557;28;20456;-71
2022/07/19 09:58:01;;;;;;;13.57;2.38;;;30.20;92.90;;;;;;5089147;28;20044;-71
2022/07/19 10:00:27;;;;;;;5.70;1.95;;;30.10;93.50;;;;;;5090494;28;20036;-70
2022/07/19 10:02:58;;;;;;;7.47;2.38;;;30.30;92.50;;;;;;5090221;28;20119;-71
2022/07/19 10:05:25;;;;;;;6.07;2.30;;;30.40;91.70;;;;;;5089078;28;20040;-70
2022/07/19 10:07:51;;;;;;;7.28;2.40;;;30.40;91.80;;;;;;5089302;28;20093;-72
2022/07/19 10:10:19;;;;;;;4.95;2.60;;;30.40;91.80;;;;;;5091526;28;20085;-70
2022/07/19 10:12:46;;;;;;;5.93;1.92;;;30.50;91.60;;;;;;5094058;28;20047;-71
2022/07/19 10:15:15;;;;;;;7.72;2.28;;;30.70;91.70;;;;;;5094520;28;20043;-70
2022/07/19 10:18:14;;;;;;;4.88;2.10;;;30.70;90.90;;;;;;5094380;28;20050;-72
2022/07/19 10:20:42;;;;;;;4.68;1.88;;;30.80;89.50;;;;;;5094203;28;20040;-70
2022/07/19 10:23:08;;;;;;;8.07;2.28;;;30.80;90.40;;;;;;5113756;28;20071;-71
2022/07/19 10:25:39;;;;;;;9.57;2.33;;;30.80;90.10;;;;;;5111386;28;20492;-71
2022/07/19 10:28:04;;;;;;;5.45;2.40;;;30.90;87.60;;;;;;5101895;28;20078;-70
2022/07/19 10:30:40;;;;;;;7.82;2.28;;;31.00;88.40;;;;;;5104975;28;20040;-71
2022/07/19 10:33:27;;;;;;;5.28;2.13;;;31.00;88.60;;;;;;5094723;28;20054;-71
2022/07/19 10:58:20;;;;;;;8.20;2.25;;;31.70;81.50;;;;;;5071951;28;20075;-71
2022/07/19 11:00:48;;;;;;;3.38;1.92;;;31.80;83.70;;;;;;5071304;28;20074;-69
2022/07/19 11:03:23;;;;;;;10.23;2.10;;;32.00;83.40;;;;;;5071131;28;20037;-70
2022/07/19 11:05:49;;;;;;;6.60;1.88;;;32.00;82.00;;;;;;5072968;28;20044;-70
2022/07/19 11:08:16;;;;;;;6.93;1.83;;;32.10;81.40;;;;;;5096303;28;20641;-70
2022/07/19 11:10:41;;;;;;;4.82;1.80;;;32.30;80.50;;;;;;5074849;28;20495;-69
2022/07/19 11:13:07;;;;;;;9.45;1.95;;;32.20;77.70;;;;;;5074399;28;20048;-71
2022/07/19 11:15:33;;;;;;;9.80;2.17;;;32.10;79.10;;;;;;5074920;28;20127;-71
2022/07/19 11:18:04;;;;;;;5.43;1.83;;;32.20;78.90;;;;;;5092758;28;20122;-70
2022/07/19 11:20:32;;;;;;;5.10;1.83;;;32.30;76.30;;;;;;5092464;28;20044;-70
2022/07/19 11:23:00;;;;;;;4.50;1.50;;;32.50;74.20;;;;;;5090840;28;20077;-70
2022/07/19 11:25:31;;;;;;;3.55;1.80;;;32.50;73.10;;;;;;5092811;28;20040;-69
2022/07/19 11:27:57;;;;;;;6.13;2.10;;;32.60;74.30;;;;;;5092715;28;20557;-71
2022/07/19 11:30:24;;;;;;;4.63;1.38;;;32.60;75.80;;;;;;5097625;28;20064;-71
2022/07/19 11:32:56;;;;;;;6.28;2.10;;;32.70;75.00;;;;;;5117724;28;20043;-72
2022/07/19 11:35:21;;;;;;;3.28;1.65;;;32.90;72.30;;;;;;5099911;28;20055;-72
2022/07/19 11:37:47;;;;;;;6.78;1.90;;;32.80;72.40;;;;;;5092788;28;20038;-72
2022/07/19 11:40:13;;;;;;;8.35;1.75;;;32.90;71.20;;;;;;5091124;28;20081;-71
2022/07/19 11:42:40;;;;;;;7.80;1.48;;;32.80;71.30;;;;;;5092830;28;20032;-72
2022/07/19 11:45:10;;;;;;;3.65;1.70;;;32.90;71.00;;;;;;5091172;28;20150;-73
2022/07/19 11:47:35;;;;;;;7.43;1.90;;;33.00;70.10;;;;;;5099862;28;20051;-73
2022/07/19 11:50:06;;;;;;;5.43;1.95;;;32.90;69.20;;;;;;5105608;28;20064;-72
2022/07/19 11:52:54;;;;;;;4.38;1.48;;;33.00;68.60;;;;;;5096123;28;20123;-72
2022/07/19 11:55:23;;;;;;;6.18;2.00;;;33.10;67.80;;;;;;5091265;28;20039;-73
2022/07/19 11:57:50;;;;;;;6.10;1.60;;;33.20;66.80;;;;;;5091603;28;20084;-71
2022/07/19 12:00:16;;;;;;;5.47;1.98;;;33.30;67.30;;;;;;5091378;28;20040;-71
2022/07/19 12:03:04;;;;;;;7.63;1.75;;;33.20;68.40;;;;;;5092280;28;20039;-71
2022/07/19 12:05:36;;;;;;;5.97;1.80;;;33.30;66.80;;;;;;5090866;28;20503;-72
2022/07/19 12:08:07;;;;;;;5.68;1.92;;;33.40;66.60;;;;;;5090803;28;20051;-71
2022/07/19 12:10:39;;;;;;;;;;;33.30;63.00;;;;;;5090886;28;20044;-70
2022/07/19 12:13:07;;;;;;;5.20;1.73;;;33.30;65.80;;;;;;5090136;28;20433;-71
2022/07/19 12:15:48;;;;;;;6.60;1.33;;;33.30;65.50;;;;;;5090199;28;20066;-72
2022/07/19 12:18:17;;;;;;;6.47;1.70;;;33.40;63.20;;;;;;5090324;28;20043;-70
2022/07/19 12:20:43;;;;;;;4.95;1.45;;;33.30;65.40;;;;;;5090136;28;20076;-70
2022/07/19 12:23:15;;;;;;;2.22;1.38;;;33.40;64.70;;;;;;5090016;28;20032;-72
2022/07/19 12:25:41;;;;;;;3.40;1.42;;;33.60;62.00;;;;;;5090202;28;20076;-72
2022/07/19 12:28:06;;;;;;;4.72;1.30;;;33.50;61.80;;;;;;5090421;28;20087;-72
2022/07/19 12:30:32;;;;;;;4.80;1.58;;;33.70;63.40;;;;;;5090520;28;20044;-71
2022/07/19 12:33:12;;;;;;;5.10;1.42;;;33.80;63.10;;;;;;5082640;28;20044;-72
2022/07/19 12:35:46;;;;;;;3.10;1.27;;;33.60;62.50;;;;;;5078955;28;20493;-72
2022/07/19 12:38:13;;;;;;;4.18;1.33;;;33.80;60.90;;;;;;5085214;28;20055;-72
2022/07/19 12:40:43;;;;;;;6.88;1.52;;;33.90;60.20;;;;;;5103196;28;20086;-73
2022/07/19 12:43:13;;;;;;;1.55;1.35;;;33.90;58.90;;;;;;5095108;28;20075;-72
2022/07/19 12:45:46;;;;;;;4.38;1.23;;;33.80;60.40;;;;;;5078585;28;20145;-72
2022/07/19 12:48:13;;;;;;;5.32;1.38;;;34.00;60.00;;;;;;5078808;28;20035;-72
2022/07/19 12:50:42;;;;;;;4.55;1.55;;;34.00;57.90;;;;;;5071846;28;20043;-72
2022/07/19 12:53:11;;;;;;;2.00;1.40;;;34.00;58.90;;;;;;5052772;28;20040;-72
2022/07/19 12:55:38;;;;;;;2.50;1.30;;;33.90;58.30;;;;;;5070913;28;20036;-71
2022/07/19 12:58:06;;;;;;;4.75;1.30;;;33.90;55.40;;;;;;5078530;28;20040;-71
2022/07/19 13:00:33;;;;;;;3.72;1.38;;;33.80;57.50;;;;;;5079126;28;20078;-71
2022/07/19 13:02:59;;;;;;;4.75;1.40;;;34.00;59.00;;;;;;5080151;28;20058;-71
2022/07/19 13:05:26;;;;;;;2.30;1.27;;;34.30;58.90;;;;;;5084064;28;20036;-73
2022/07/19 13:07:53;;;;;;;4.45;1.38;;;34.30;56.70;;;;;;5094453;28;20396;-73
2022/07/19 13:10:18;;;;;;;2.42;1.20;;;34.30;57.30;;;;;;5087889;28;20028;-72